sensor_id;sensor_type;location;lat;lon;timestamp;temperature;humidity
13898;DHT22;7019;50.766;4.474;2023-04-24T00:01:45;8.70;99.90
13898;DHT22;7019;50.766;4.474;2023-04-24T00:04:13;8.70;99.90
13898;DHT22;7019;50.766;4.474;2023-04-24T00:06:42;8.70;99.90
13898;DHT22;7019;50.766;4.474;2023-04-24T00:09:09;8.70;99.90
13898;DHT22;7019;50.766;4.474;2023-04-24T00:11:36;8.70;99.90
13898;DHT22;7019;50.766;4.474;2023-04-24T00:14:04;8.60;99.90
13898;DHT22;7019;50.766;4.474;2023-04-24T00:16:31;8.60;99.90
13898;DHT22;7019;50.766;4.474;2023-04-24T00:18:58;8.60;99.90
13898;DHT22;7019;50.766;4.474;2023-04-24T00:21:27;8.60;99.90
13898;DHT22;7019;50.766;4.474;2023-04-24T00:23:55;8.60;99.90
13898;DHT22;7019;50.766;4.474;2023-04-24T00:26:22;8.60;99.90
13898;DHT22;7019;50.766;4.474;2023-04-24T00:28:51;8.60;99.90
13898;DHT22;7019;50.766;4.474;2023-04-24T00:31:18;8.60;99.90
13898;DHT22;7019;50.766;4.474;2023-04-24T00:33:46;8.60;99.90
13898;DHT22;7019;50.766;4.474;2023-04-24T00:36:13;8.60;99.90
13898;DHT22;7019;50.766;4.474;2023-04-24T00:38:41;8.60;99.90
13898;DHT22;7019;50.766;4.474;2023-04-24T00:41:08;8.60;99.90
13898;DHT22;7019;50.766;4.474;2023-04-24T00:43:36;8.60;99.90
13898;DHT22;7019;50.766;4.474;2023-04-24T00:46:03;8.60;99.90
13898;DHT22;7019;50.766;4.474;2023-04-24T00:48:31;8.60;99.90
13898;DHT22;7019;50.766;4.474;2023-04-24T00:50:58;8.60;99.90
13898;DHT22;7019;50.766;4.474;2023-04-24T00:53:25;8.60;99.90
13898;DHT22;7019;50.766;4.474;2023-04-24T00:55:53;8.60;99.90
13898;DHT22;7019;50.766;4.474;2023-04-24T00:58:21;8.50;99.90
13898;DHT22;7019;50.766;4.474;2023-04-24T01:00:49;8.50;99.90
13898;DHT22;7019;50.766;4.474;2023-04-24T01:03:18;8.50;99.90
13898;DHT22;7019;50.766;4.474;2023-04-24T01:05:46;8.50;99.90
13898;DHT22;7019;50.766;4.474;2023-04-24T01:08:14;8.50;99.90
13898;DHT22;7019;50.766;4.474;2023-04-24T01:10:41;8.40;99.90
13898;DHT22;7019;50.766;4.474;2023-04-24T01:13:11;8.40;99.90
13898;DHT22;7019;50.766;4.474;2023-04-24T01:15:38;8.30;99.90
13898;DHT22;7019;50.766;4.474;2023-04-24T01:18:05;8.30;99.90
13898;DHT22;7019;50.766;4.474;2023-04-24T01:20:33;8.30;99.90
13898;DHT22;7019;50.766;4.474;2023-04-24T01:23:03;8.20;99.90
13898;DHT22;7019;50.766;4.474;2023-04-24T01:25:30;8.10;99.90
13898;DHT22;7019;50.766;4.474;2023-04-24T01:27:58;8.10;99.90
13898;DHT22;7019;50.766;4.474;2023-04-24T01:30:25;8.10;99.90
13898;DHT22;7019;50.766;4.474;2023-04-24T01:32:53;8.10;99.90
13898;DHT22;7019;50.766;4.474;2023-04-24T01:35:20;8.10;99.90
13898;DHT22;7019;50.766;4.474;2023-04-24T01:37:47;8.00;99.90
13898;DHT22;7019;50.766;4.474;2023-04-24T01:40:18;8.00;99.90
13898;DHT22;7019;50.766;4.474;2023-04-24T01:42:45;7.90;99.90
13898;DHT22;7019;50.766;4.474;2023-04-24T01:45:12;7.90;99.90
13898;DHT22;7019;50.766;4.474;2023-04-24T01:47:40;7.90;99.90
13898;DHT22;7019;50.766;4.474;2023-04-24T01:50:09;7.90;99.90
13898;DHT22;7019;50.766;4.474;2023-04-24T01:52:37;7.90;99.90
13898;DHT22;7019;50.766;4.474;2023-04-24T01:55:05;7.90;99.90
13898;DHT22;7019;50.766;4.474;2023-04-24T01:57:34;7.90;99.90
13898;DHT22;7019;50.766;4.474;2023-04-24T02:00:02;7.90;99.90
13898;DHT22;7019;50.766;4.474;2023-04-24T02:02:33;7.90;99.90
13898;DHT22;7019;50.766;4.474;2023-04-24T02:05:00;8.00;99.90
13898;DHT22;7019;50.766;4.474;2023-04-24T02:07:28;7.90;99.90
13898;DHT22;7019;50.766;4.474;2023-04-24T02:09:55;7.90;99.90
13898;DHT22;7019;50.766;4.474;2023-04-24T02:12:25;7.90;99.90
13898;DHT22;7019;50.766;4.474;2023-04-24T02:14:53;7.90;99.90
13898;DHT22;7019;50.766;4.474;2023-04-24T02:17:21;7.90;99.90
13898;DHT22;7019;50.766;4.474;2023-04-24T02:19:48;7.90;99.90
13898;DHT22;7019;50.766;4.474;2023-04-24T02:22:17;7.80;99.90
13898;DHT22;7019;50.766;4.474;2023-04-24T02:24:44;7.90;99.90
13898;DHT22;7019;50.766;4.474;2023-04-24T02:27:11;7.90;99.90
13898;DHT22;7019;50.766;4.474;2023-04-24T02:29:39;7.80;99.90
13898;DHT22;7019;50.766;4.474;2023-04-24T02:32:07;7.80;99.90
13898;DHT22;7019;50.766;4.474;2023-04-24T02:34:37;7.90;99.90
13898;DHT22;7019;50.766;4.474;2023-04-24T02:37:07;7.90;99.90
13898;DHT22;7019;50.766;4.474;2023-04-24T02:39:34;7.90;99.90
13898;DHT22;7019;50.766;4.474;2023-04-24T02:42:03;7.90;99.90
13898;DHT22;7019;50.766;4.474;2023-04-24T02:44:31;7.90;99.90
13898;DHT22;7019;50.766;4.474;2023-04-24T02:46:58;7.90;99.90
13898;DHT22;7019;50.766;4.474;2023-04-24T02:49:26;7.90;99.90
13898;DHT22;7019;50.766;4.474;2023-04-24T02:51:53;7.90;99.90
13898;DHT22;7019;50.766;4.474;2023-04-24T02:54:20;7.90;99.90
13898;DHT22;7019;50.766;4.474;2023-04-24T02:56:47;7.90;99.90
13898;DHT22;7019;50.766;4.474;2023-04-24T02:59:15;7.90;99.90
13898;DHT22;7019;50.766;4.474;2023-04-24T03:01:42;7.90;99.90
13898;DHT22;7019;50.766;4.474;2023-04-24T03:04:09;7.80;99.90
13898;DHT22;7019;50.766;4.474;2023-04-24T03:06:38;7.80;99.90
13898;DHT22;7019;50.766;4.474;2023-04-24T03:09:05;7.80;99.90
13898;DHT22;7019;50.766;4.474;2023-04-24T03:11:32;7.90;99.90
13898;DHT22;7019;50.766;4.474;2023-04-24T03:13:59;7.90;99.90
13898;DHT22;7019;50.766;4.474;2023-04-24T03:16:26;7.90;99.90
13898;DHT22;7019;50.766;4.474;2023-04-24T03:18:53;7.90;99.90
13898;DHT22;7019;50.766;4.474;2023-04-24T03:21:20;7.90;99.90
13898;DHT22;7019;50.766;4.474;2023-04-24T03:23:49;7.80;99.90
13898;DHT22;7019;50.766;4.474;2023-04-24T03:26:16;7.80;99.90
13898;DHT22;7019;50.766;4.474;2023-04-24T03:28:43;7.90;99.90
13898;DHT22;7019;50.766;4.474;2023-04-24T03:31:10;7.80;99.90
13898;DHT22;7019;50.766;4.474;2023-04-24T03:33:37;7.80;99.90
13898;DHT22;7019;50.766;4.474;2023-04-24T03:36:04;7.80;99.90
13898;DHT22;7019;50.766;4.474;2023-04-24T03:38:31;7.80;99.90
13898;DHT22;7019;50.766;4.474;2023-04-24T03:41:00;7.70;99.90
13898;DHT22;7019;50.766;4.474;2023-04-24T03:43:29;7.70;99.90
13898;DHT22;7019;50.766;4.474;2023-04-24T03:46:01;7.70;99.90
13898;DHT22;7019;50.766;4.474;2023-04-24T03:48:28;7.70;99.90
13898;DHT22;7019;50.766;4.474;2023-04-24T03:50:55;7.70;99.90
13898;DHT22;7019;50.766;4.474;2023-04-24T03:53:23;7.70;99.90
13898;DHT22;7019;50.766;4.474;2023-04-24T03:55:50;7.70;99.90
13898;DHT22;7019;50.766;4.474;2023-04-24T03:58:18;7.70;99.90
13898;DHT22;7019;50.766;4.474;2023-04-24T04:00:45;7.70;99.90
13898;DHT22;7019;50.766;4.474;2023-04-24T04:03:13;7.70;99.90
13898;DHT22;7019;50.766;4.474;2023-04-24T04:05:41;7.70;99.90
13898;DHT22;7019;50.766;4.474;2023-04-24T04:08:08;7.70;99.90
13898;DHT22;7019;50.766;4.474;2023-04-24T04:10:35;7.70;99.90
13898;DHT22;7019;50.766;4.474;2023-04-24T04:13:02;7.70;99.90
13898;DHT22;7019;50.766;4.474;2023-04-24T04:15:30;7.70;99.90
13898;DHT22;7019;50.766;4.474;2023-04-24T04:17:57;7.70;99.90
13898;DHT22;7019;50.766;4.474;2023-04-24T04:20:24;7.70;99.90
13898;DHT22;7019;50.766;4.474;2023-04-24T04:22:51;7.70;99.90
13898;DHT22;7019;50.766;4.474;2023-04-24T04:25:18;7.70;99.90
13898;DHT22;7019;50.766;4.474;2023-04-24T04:27:46;7.70;99.90
13898;DHT22;7019;50.766;4.474;2023-04-24T04:30:13;7.70;99.90
13898;DHT22;7019;50.766;4.474;2023-04-24T04:32:42;7.80;99.90
13898;DHT22;7019;50.766;4.474;2023-04-24T04:35:09;7.80;99.90
13898;DHT22;7019;50.766;4.474;2023-04-24T04:37:36;7.80;99.90
13898;DHT22;7019;50.766;4.474;2023-04-24T04:40:04;7.80;99.90
13898;DHT22;7019;50.766;4.474;2023-04-24T04:42:33;7.80;99.90
13898;DHT22;7019;50.766;4.474;2023-04-24T04:45:00;7.80;99.90
13898;DHT22;7019;50.766;4.474;2023-04-24T04:47:28;7.90;99.90
13898;DHT22;7019;50.766;4.474;2023-04-24T04:49:58;7.80;99.90
13898;DHT22;7019;50.766;4.474;2023-04-24T04:52:25;7.90;99.90
13898;DHT22;7019;50.766;4.474;2023-04-24T04:54:53;7.90;99.90
13898;DHT22;7019;50.766;4.474;2023-04-24T04:57:20;7.90;99.90
13898;DHT22;7019;50.766;4.474;2023-04-24T04:59:47;7.90;99.90
13898;DHT22;7019;50.766;4.474;2023-04-24T05:02:14;7.90;99.90
13898;DHT22;7019;50.766;4.474;2023-04-24T05:04:41;7.90;99.90
13898;DHT22;7019;50.766;4.474;2023-04-24T05:07:10;7.90;99.90
13898;DHT22;7019;50.766;4.474;2023-04-24T05:09:37;7.90;99.90
13898;DHT22;7019;50.766;4.474;2023-04-24T05:12:04;7.80;99.90
13898;DHT22;7019;50.766;4.474;2023-04-24T05:14:31;7.90;99.90
13898;DHT22;7019;50.766;4.474;2023-04-24T05:16:58;7.90;99.90
13898;DHT22;7019;50.766;4.474;2023-04-24T05:19:25;7.90;99.90
13898;DHT22;7019;50.766;4.474;2023-04-24T05:21:52;7.90;99.90
13898;DHT22;7019;50.766;4.474;2023-04-24T05:24:24;7.90;99.90
13898;DHT22;7019;50.766;4.474;2023-04-24T05:26:51;7.90;99.90
13898;DHT22;7019;50.766;4.474;2023-04-24T05:29:18;7.80;99.90
13898;DHT22;7019;50.766;4.474;2023-04-24T05:31:47;7.80;99.90
13898;DHT22;7019;50.766;4.474;2023-04-24T05:34:14;7.80;99.90
13898;DHT22;7019;50.766;4.474;2023-04-24T05:36:42;7.80;99.90
13898;DHT22;7019;50.766;4.474;2023-04-24T05:39:10;7.80;99.90
13898;DHT22;7019;50.766;4.474;2023-04-24T05:41:38;7.80;99.90
13898;DHT22;7019;50.766;4.474;2023-04-24T05:44:05;7.80;99.90
13898;DHT22;7019;50.766;4.474;2023-04-24T05:46:33;7.90;99.90
13898;DHT22;7019;50.766;4.474;2023-04-24T05:49:00;7.80;99.90
13898;DHT22;7019;50.766;4.474;2023-04-24T05:51:27;7.80;99.90
13898;DHT22;7019;50.766;4.474;2023-04-24T05:53:55;7.80;99.90
13898;DHT22;7019;50.766;4.474;2023-04-24T05:56:22;7.80;99.90
13898;DHT22;7019;50.766;4.474;2023-04-24T05:58:51;7.80;99.90
13898;DHT22;7019;50.766;4.474;2023-04-24T06:01:18;7.80;99.90
13898;DHT22;7019;50.766;4.474;2023-04-24T06:03:45;7.80;99.90
13898;DHT22;7019;50.766;4.474;2023-04-24T06:06:12;7.70;99.90
13898;DHT22;7019;50.766;4.474;2023-04-24T06:08:40;7.70;99.90
13898;DHT22;7019;50.766;4.474;2023-04-24T06:11:08;7.70;99.90
13898;DHT22;7019;50.766;4.474;2023-04-24T06:13:35;7.70;99.90
13898;DHT22;7019;50.766;4.474;2023-04-24T06:16:05;7.80;99.90
13898;DHT22;7019;50.766;4.474;2023-04-24T06:18:32;7.80;99.90
13898;DHT22;7019;50.766;4.474;2023-04-24T06:20:59;7.80;99.90
13898;DHT22;7019;50.766;4.474;2023-04-24T06:23:26;7.80;99.90
13898;DHT22;7019;50.766;4.474;2023-04-24T06:25:53;7.80;99.90
13898;DHT22;7019;50.766;4.474;2023-04-24T06:28:20;7.70;99.90
13898;DHT22;7019;50.766;4.474;2023-04-24T06:30:47;7.70;99.90
13898;DHT22;7019;50.766;4.474;2023-04-24T06:33:16;7.70;99.90
13898;DHT22;7019;50.766;4.474;2023-04-24T06:35:43;7.70;99.90
13898;DHT22;7019;50.766;4.474;2023-04-24T06:38:10;7.70;99.90
13898;DHT22;7019;50.766;4.474;2023-04-24T06:40:37;7.70;99.90
13898;DHT22;7019;50.766;4.474;2023-04-24T06:43:04;7.70;99.90
13898;DHT22;7019;50.766;4.474;2023-04-24T06:45:31;7.70;99.90
13898;DHT22;7019;50.766;4.474;2023-04-24T06:47:58;7.70;99.90
13898;DHT22;7019;50.766;4.474;2023-04-24T06:50:27;7.70;99.90
13898;DHT22;7019;50.766;4.474;2023-04-24T06:52:54;7.70;99.90
13898;DHT22;7019;50.766;4.474;2023-04-24T06:55:21;7.80;99.90
13898;DHT22;7019;50.766;4.474;2023-04-24T06:57:48;7.80;99.90
13898;DHT22;7019;50.766;4.474;2023-04-24T07:00:16;7.90;99.90
13898;DHT22;7019;50.766;4.474;2023-04-24T07:02:43;7.90;99.90
13898;DHT22;7019;50.766;4.474;2023-04-24T07:05:10;8.00;99.90
13898;DHT22;7019;50.766;4.474;2023-04-24T07:07:39;8.00;99.90
13898;DHT22;7019;50.766;4.474;2023-04-24T07:10:09;8.10;99.90
13898;DHT22;7019;50.766;4.474;2023-04-24T07:12:39;8.20;99.90
13898;DHT22;7019;50.766;4.474;2023-04-24T07:15:08;8.30;99.90
13898;DHT22;7019;50.766;4.474;2023-04-24T07:17:35;8.40;99.90
13898;DHT22;7019;50.766;4.474;2023-04-24T07:20:05;8.50;99.90
13898;DHT22;7019;50.766;4.474;2023-04-24T07:22:34;8.60;99.90
13898;DHT22;7019;50.766;4.474;2023-04-24T07:25:04;8.70;99.90
13898;DHT22;7019;50.766;4.474;2023-04-24T07:27:33;8.70;99.90
13898;DHT22;7019;50.766;4.474;2023-04-24T07:30:01;8.70;99.90
13898;DHT22;7019;50.766;4.474;2023-04-24T07:32:29;8.60;99.90
13898;DHT22;7019;50.766;4.474;2023-04-24T07:34:56;8.70;99.90
13898;DHT22;7019;50.766;4.474;2023-04-24T07:37:24;8.70;99.90
13898;DHT22;7019;50.766;4.474;2023-04-24T07:39:51;8.80;99.90
13898;DHT22;7019;50.766;4.474;2023-04-24T07:42:20;9.30;99.90
13898;DHT22;7019;50.766;4.474;2023-04-24T07:44:48;9.70;99.90
13898;DHT22;7019;50.766;4.474;2023-04-24T07:47:17;9.80;99.90
13898;DHT22;7019;50.766;4.474;2023-04-24T07:49:44;9.80;99.90
13898;DHT22;7019;50.766;4.474;2023-04-24T07:52:12;9.70;99.90
13898;DHT22;7019;50.766;4.474;2023-04-24T07:54:39;9.50;99.90
13898;DHT22;7019;50.766;4.474;2023-04-24T07:57:06;9.30;99.90
13898;DHT22;7019;50.766;4.474;2023-04-24T07:59:35;9.10;99.90
13898;DHT22;7019;50.766;4.474;2023-04-24T08:02:02;9.00;99.90
13898;DHT22;7019;50.766;4.474;2023-04-24T08:04:29;9.00;99.90
13898;DHT22;7019;50.766;4.474;2023-04-24T08:06:56;8.90;99.90
13898;DHT22;7019;50.766;4.474;2023-04-24T08:09:23;9.00;99.90
13898;DHT22;7019;50.766;4.474;2023-04-24T08:11:50;9.00;99.90
13898;DHT22;7019;50.766;4.474;2023-04-24T08:14:17;9.10;99.90
13898;DHT22;7019;50.766;4.474;2023-04-24T08:16:46;9.40;99.90
13898;DHT22;7019;50.766;4.474;2023-04-24T08:19:13;9.60;99.90
13898;DHT22;7019;50.766;4.474;2023-04-24T08:21:40;9.80;99.90
13898;DHT22;7019;50.766;4.474;2023-04-24T08:24:07;10.00;99.90
13898;DHT22;7019;50.766;4.474;2023-04-24T08:26:34;10.20;99.90
13898;DHT22;7019;50.766;4.474;2023-04-24T08:29:01;10.40;99.90
13898;DHT22;7019;50.766;4.474;2023-04-24T08:31:28;10.50;99.90
13898;DHT22;7019;50.766;4.474;2023-04-24T08:33:57;10.60;99.90
13898;DHT22;7019;50.766;4.474;2023-04-24T08:36:25;10.40;99.90
13898;DHT22;7019;50.766;4.474;2023-04-24T08:38:53;10.40;99.90
13898;DHT22;7019;50.766;4.474;2023-04-24T08:41:23;10.80;99.90
13898;DHT22;7019;50.766;4.474;2023-04-24T08:43:52;10.70;99.90
13898;DHT22;7019;50.766;4.474;2023-04-24T08:46:21;10.70;99.90
13898;DHT22;7019;50.766;4.474;2023-04-24T08:48:49;10.70;99.90
13898;DHT22;7019;50.766;4.474;2023-04-24T08:51:18;10.80;99.90
13898;DHT22;7019;50.766;4.474;2023-04-24T08:53:47;10.70;99.90
13898;DHT22;7019;50.766;4.474;2023-04-24T08:56:14;10.60;99.90
13898;DHT22;7019;50.766;4.474;2023-04-24T08:58:42;10.80;99.90
13898;DHT22;7019;50.766;4.474;2023-04-24T09:01:10;11.80;99.90
13898;DHT22;7019;50.766;4.474;2023-04-24T09:03:38;12.90;99.90
13898;DHT22;7019;50.766;4.474;2023-04-24T09:06:08;13.60;99.90
13898;DHT22;7019;50.766;4.474;2023-04-24T09:08:39;14.00;99.90
13898;DHT22;7019;50.766;4.474;2023-04-24T09:11:08;15.00;99.90
13898;DHT22;7019;50.766;4.474;2023-04-24T09:13:35;15.30;99.90
13898;DHT22;7019;50.766;4.474;2023-04-24T09:16:03;15.20;99.90
13898;DHT22;7019;50.766;4.474;2023-04-24T09:18:31;15.50;99.90
13898;DHT22;7019;50.766;4.474;2023-04-24T09:20:59;15.40;99.90
13898;DHT22;7019;50.766;4.474;2023-04-24T09:23:28;15.80;99.90
13898;DHT22;7019;50.766;4.474;2023-04-24T09:25:57;15.50;99.90
13898;DHT22;7019;50.766;4.474;2023-04-24T09:28:29;15.60;99.90
13898;DHT22;7019;50.766;4.474;2023-04-24T09:31:04;15.00;99.90
13898;DHT22;7019;50.766;4.474;2023-04-24T09:33:31;13.80;99.90
13898;DHT22;7019;50.766;4.474;2023-04-24T09:35:58;12.90;99.90
13898;DHT22;7019;50.766;4.474;2023-04-24T09:38:33;12.40;99.90
13898;DHT22;7019;50.766;4.474;2023-04-24T09:41:04;12.30;99.90
13898;DHT22;7019;50.766;4.474;2023-04-24T09:43:33;12.00;99.90
13898;DHT22;7019;50.766;4.474;2023-04-24T09:46:05;12.20;99.90
13898;DHT22;7019;50.766;4.474;2023-04-24T09:48:33;13.10;99.90
13898;DHT22;7019;50.766;4.474;2023-04-24T09:51:02;14.10;99.90
13898;DHT22;7019;50.766;4.474;2023-04-24T09:53:30;14.40;99.90
13898;DHT22;7019;50.766;4.474;2023-04-24T09:56:07;14.10;99.90
13898;DHT22;7019;50.766;4.474;2023-04-24T09:58:35;13.50;99.90
13898;DHT22;7019;50.766;4.474;2023-04-24T10:01:02;13.70;99.90
13898;DHT22;7019;50.766;4.474;2023-04-24T10:03:32;14.00;99.90
13898;DHT22;7019;50.766;4.474;2023-04-24T10:06:00;13.90;99.90
13898;DHT22;7019;50.766;4.474;2023-04-24T10:08:33;13.70;99.90
13898;DHT22;7019;50.766;4.474;2023-04-24T10:11:02;13.50;99.90
13898;DHT22;7019;50.766;4.474;2023-04-24T10:13:30;13.00;99.90
13898;DHT22;7019;50.766;4.474;2023-04-24T10:15:59;12.70;99.90
13898;DHT22;7019;50.766;4.474;2023-04-24T10:18:27;12.60;99.90
13898;DHT22;7019;50.766;4.474;2023-04-24T10:20:54;13.30;99.90
13898;DHT22;7019;50.766;4.474;2023-04-24T10:23:25;13.70;99.90
13898;DHT22;7019;50.766;4.474;2023-04-24T10:25:55;14.20;99.90
13898;DHT22;7019;50.766;4.474;2023-04-24T10:28:24;14.00;99.90
13898;DHT22;7019;50.766;4.474;2023-04-24T10:30:54;13.90;99.90
13898;DHT22;7019;50.766;4.474;2023-04-24T10:33:22;13.50;99.90
13898;DHT22;7019;50.766;4.474;2023-04-24T10:35:53;13.30;99.90
13898;DHT22;7019;50.766;4.474;2023-04-24T10:38:24;13.70;99.90
13898;DHT22;7019;50.766;4.474;2023-04-24T10:40:57;14.30;99.90
13898;DHT22;7019;50.766;4.474;2023-04-24T10:43:35;14.50;99.90
13898;DHT22;7019;50.766;4.474;2023-04-24T10:46:03;14.20;99.90
13898;DHT22;7019;50.766;4.474;2023-04-24T10:48:31;13.70;99.90
13898;DHT22;7019;50.766;4.474;2023-04-24T10:50:58;13.00;99.90
13898;DHT22;7019;50.766;4.474;2023-04-24T10:53:28;12.50;99.90
13898;DHT22;7019;50.766;4.474;2023-04-24T10:55:58;12.30;99.90
13898;DHT22;7019;50.766;4.474;2023-04-24T10:58:38;12.20;99.90
13898;DHT22;7019;50.766;4.474;2023-04-24T11:01:06;12.30;99.90
13898;DHT22;7019;50.766;4.474;2023-04-24T11:03:34;12.30;99.90
13898;DHT22;7019;50.766;4.474;2023-04-24T11:06:03;12.20;99.90
13898;DHT22;7019;50.766;4.474;2023-04-24T11:08:37;12.20;99.90
13898;DHT22;7019;50.766;4.474;2023-04-24T11:11:09;12.30;99.90
13898;DHT22;7019;50.766;4.474;2023-04-24T11:14:04;12.60;99.90
13898;DHT22;7019;50.766;4.474;2023-04-24T11:16:34;13.00;99.90
13898;DHT22;7019;50.766;4.474;2023-04-24T11:19:02;12.90;99.90
13898;DHT22;7019;50.766;4.474;2023-04-24T11:21:48;12.60;99.90
13898;DHT22;7019;50.766;4.474;2023-04-24T11:24:31;12.40;99.90
13898;DHT22;7019;50.766;4.474;2023-04-24T11:27:07;12.50;99.90
13898;DHT22;7019;50.766;4.474;2023-04-24T11:29:43;13.00;99.90
13898;DHT22;7019;50.766;4.474;2023-04-24T11:32:18;13.30;99.90
13898;DHT22;7019;50.766;4.474;2023-04-24T11:34:47;13.30;99.90
13898;DHT22;7019;50.766;4.474;2023-04-24T11:37:15;12.80;99.90
13898;DHT22;7019;50.766;4.474;2023-04-24T11:39:42;12.60;99.90
13898;DHT22;7019;50.766;4.474;2023-04-24T11:42:09;12.40;99.90
13898;DHT22;7019;50.766;4.474;2023-04-24T11:44:37;12.30;99.90
13898;DHT22;7019;50.766;4.474;2023-04-24T11:47:06;12.30;99.90
13898;DHT22;7019;50.766;4.474;2023-04-24T11:49:33;12.70;99.90
13898;DHT22;7019;50.766;4.474;2023-04-24T11:52:00;13.20;99.90
13898;DHT22;7019;50.766;4.474;2023-04-24T11:54:27;13.80;99.90
13898;DHT22;7019;50.766;4.474;2023-04-24T11:56:56;14.30;99.90
13898;DHT22;7019;50.766;4.474;2023-04-24T11:59:23;14.70;99.90
13898;DHT22;7019;50.766;4.474;2023-04-24T12:01:50;14.90;99.90
13898;DHT22;7019;50.766;4.474;2023-04-24T12:04:18;14.90;99.90
13898;DHT22;7019;50.766;4.474;2023-04-24T12:07:01;15.00;99.90
13898;DHT22;7019;50.766;4.474;2023-04-24T12:09:39;15.30;99.90
13898;DHT22;7019;50.766;4.474;2023-04-24T12:12:07;15.50;99.90
13898;DHT22;7019;50.766;4.474;2023-04-24T12:14:42;15.50;99.90
13898;DHT22;7019;50.766;4.474;2023-04-24T12:17:09;14.70;99.90
13898;DHT22;7019;50.766;4.474;2023-04-24T12:19:44;14.30;99.90
13898;DHT22;7019;50.766;4.474;2023-04-24T12:22:11;13.80;99.90
13898;DHT22;7019;50.766;4.474;2023-04-24T12:24:57;13.30;99.90
13898;DHT22;7019;50.766;4.474;2023-04-24T12:27:24;13.40;99.90
13898;DHT22;7019;50.766;4.474;2023-04-24T12:29:52;13.90;99.90
13898;DHT22;7019;50.766;4.474;2023-04-24T12:32:19;14.60;99.90
13898;DHT22;7019;50.766;4.474;2023-04-24T12:34:49;15.20;99.90
13898;DHT22;7019;50.766;4.474;2023-04-24T12:37:16;15.80;99.90
13898;DHT22;7019;50.766;4.474;2023-04-24T12:39:58;15.90;99.90
13898;DHT22;7019;50.766;4.474;2023-04-24T12:42:26;15.70;99.90
13898;DHT22;7019;50.766;4.474;2023-04-24T12:44:56;15.20;99.90
13898;DHT22;7019;50.766;4.474;2023-04-24T12:47:25;14.70;99.90
13898;DHT22;7019;50.766;4.474;2023-04-24T12:49:54;14.50;99.90
13898;DHT22;7019;50.766;4.474;2023-04-24T12:52:21;14.40;99.90
13898;DHT22;7019;50.766;4.474;2023-04-24T12:54:49;14.20;99.90
13898;DHT22;7019;50.766;4.474;2023-04-24T12:57:17;14.10;99.90
13898;DHT22;7019;50.766;4.474;2023-04-24T12:59:44;13.70;99.90
13898;DHT22;7019;50.766;4.474;2023-04-24T13:02:11;13.40;99.90
13898;DHT22;7019;50.766;4.474;2023-04-24T13:04:39;13.30;99.90
13898;DHT22;7019;50.766;4.474;2023-04-24T13:07:07;13.20;99.90
13898;DHT22;7019;50.766;4.474;2023-04-24T13:09:34;13.30;99.90
13898;DHT22;7019;50.766;4.474;2023-04-24T13:12:02;13.60;99.90
13898;DHT22;7019;50.766;4.474;2023-04-24T13:14:31;14.10;99.90
13898;DHT22;7019;50.766;4.474;2023-04-24T13:16:58;14.60;99.90
13898;DHT22;7019;50.766;4.474;2023-04-24T13:19:25;15.00;99.90
13898;DHT22;7019;50.766;4.474;2023-04-24T13:21:54;15.40;99.90
13898;DHT22;7019;50.766;4.474;2023-04-24T13:24:23;15.80;99.90
13898;DHT22;7019;50.766;4.474;2023-04-24T13:26:51;15.70;99.90
13898;DHT22;7019;50.766;4.474;2023-04-24T13:29:19;15.40;99.90
13898;DHT22;7019;50.766;4.474;2023-04-24T13:31:46;14.90;99.90
13898;DHT22;7019;50.766;4.474;2023-04-24T13:34:14;14.60;99.90
13898;DHT22;7019;50.766;4.474;2023-04-24T13:36:42;14.30;99.90
13898;DHT22;7019;50.766;4.474;2023-04-24T13:39:09;13.90;99.90
13898;DHT22;7019;50.766;4.474;2023-04-24T13:41:39;13.60;99.90
13898;DHT22;7019;50.766;4.474;2023-04-24T13:44:06;13.50;99.90
13898;DHT22;7019;50.766;4.474;2023-04-24T13:46:34;13.30;99.90
13898;DHT22;7019;50.766;4.474;2023-04-24T13:49:02;13.30;99.90
13898;DHT22;7019;50.766;4.474;2023-04-24T13:51:29;13.30;99.90
13898;DHT22;7019;50.766;4.474;2023-04-24T13:53:56;13.40;99.90
13898;DHT22;7019;50.766;4.474;2023-04-24T13:56:23;13.50;99.90
13898;DHT22;7019;50.766;4.474;2023-04-24T13:58:52;13.50;99.90
13898;DHT22;7019;50.766;4.474;2023-04-24T14:01:19;13.50;99.90
13898;DHT22;7019;50.766;4.474;2023-04-24T14:03:49;13.60;99.90
13898;DHT22;7019;50.766;4.474;2023-04-24T14:06:17;13.50;99.90
13898;DHT22;7019;50.766;4.474;2023-04-24T14:08:44;13.60;99.90
13898;DHT22;7019;50.766;4.474;2023-04-24T14:11:11;13.70;99.90
13898;DHT22;7019;50.766;4.474;2023-04-24T14:13:39;13.70;99.90
13898;DHT22;7019;50.766;4.474;2023-04-24T14:16:08;13.60;99.90
13898;DHT22;7019;50.766;4.474;2023-04-24T14:18:36;13.60;99.90
13898;DHT22;7019;50.766;4.474;2023-04-24T14:21:03;13.50;99.90
13898;DHT22;7019;50.766;4.474;2023-04-24T14:23:31;13.60;99.90
13898;DHT22;7019;50.766;4.474;2023-04-24T14:25:58;13.50;99.90
13898;DHT22;7019;50.766;4.474;2023-04-24T14:28:26;13.70;99.90
13898;DHT22;7019;50.766;4.474;2023-04-24T14:30:53;13.60;99.90
13898;DHT22;7019;50.766;4.474;2023-04-24T14:33:21;13.60;99.90
13898;DHT22;7019;50.766;4.474;2023-04-24T14:35:49;13.60;99.90
13898;DHT22;7019;50.766;4.474;2023-04-24T14:38:16;13.30;99.90
13898;DHT22;7019;50.766;4.474;2023-04-24T14:40:43;13.00;99.90
13898;DHT22;7019;50.766;4.474;2023-04-24T14:43:10;12.90;99.90
13898;DHT22;7019;50.766;4.474;2023-04-24T14:45:37;12.80;99.90
13898;DHT22;7019;50.766;4.474;2023-04-24T14:48:06;12.60;99.90
13898;DHT22;7019;50.766;4.474;2023-04-24T14:50:35;12.60;99.90
13898;DHT22;7019;50.766;4.474;2023-04-24T14:53:02;12.60;99.90
13898;DHT22;7019;50.766;4.474;2023-04-24T14:55:29;12.60;99.90
13898;DHT22;7019;50.766;4.474;2023-04-24T14:57:57;12.60;99.90
13898;DHT22;7019;50.766;4.474;2023-04-24T15:00:24;12.70;99.90
13898;DHT22;7019;50.766;4.474;2023-04-24T15:02:51;12.60;99.90
13898;DHT22;7019;50.766;4.474;2023-04-24T15:05:18;12.50;99.90
13898;DHT22;7019;50.766;4.474;2023-04-24T15:07:46;12.60;99.90
13898;DHT22;7019;50.766;4.474;2023-04-24T15:10:14;12.80;99.90
13898;DHT22;7019;50.766;4.474;2023-04-24T15:12:43;12.90;99.90
13898;DHT22;7019;50.766;4.474;2023-04-24T15:15:10;13.00;99.90
13898;DHT22;7019;50.766;4.474;2023-04-24T15:17:37;13.10;99.90
13898;DHT22;7019;50.766;4.474;2023-04-24T15:20:06;13.00;99.90
13898;DHT22;7019;50.766;4.474;2023-04-24T15:22:33;12.80;99.90
13898;DHT22;7019;50.766;4.474;2023-04-24T15:25:02;12.60;99.90
13898;DHT22;7019;50.766;4.474;2023-04-24T15:27:39;12.60;99.90
13898;DHT22;7019;50.766;4.474;2023-04-24T15:30:08;12.50;99.90
13898;DHT22;7019;50.766;4.474;2023-04-24T15:32:36;12.50;99.90
13898;DHT22;7019;50.766;4.474;2023-04-24T15:35:03;12.50;99.90
13898;DHT22;7019;50.766;4.474;2023-04-24T15:37:31;12.50;99.90
13898;DHT22;7019;50.766;4.474;2023-04-24T15:39:58;12.40;99.90
13898;DHT22;7019;50.766;4.474;2023-04-24T15:42:27;12.40;99.90
13898;DHT22;7019;50.766;4.474;2023-04-24T15:44:54;12.40;99.90
13898;DHT22;7019;50.766;4.474;2023-04-24T15:47:21;12.50;99.90
13898;DHT22;7019;50.766;4.474;2023-04-24T15:49:48;12.50;99.90
13898;DHT22;7019;50.766;4.474;2023-04-24T15:52:15;12.40;99.90
13898;DHT22;7019;50.766;4.474;2023-04-24T15:54:42;12.30;99.90
13898;DHT22;7019;50.766;4.474;2023-04-24T15:57:10;12.30;99.90
13898;DHT22;7019;50.766;4.474;2023-04-24T15:59:39;12.20;99.90
13898;DHT22;7019;50.766;4.474;2023-04-24T16:02:08;12.30;99.90